Time;durP1;ratioP1;P1;durP2;ratioP2;P2;SDS_P1;SDS_P2;PMS_P1;PMS_P2;Temp;Humidity;BMP_temperature;BMP_pressure;BME280_temperature;BME280_humidity;BME280_pressure;Samples;Min_cycle;Max_cycle;Signal;HPM_P1;HPM_P2
2023/03/29 00:00:19;;;;;;;0.10;0.10;;;;;;;13.09;78.30;100014.44;7350781;19;20017;-64
2023/03/29 00:02:47;;;;;;;0.10;0.10;;;;;;;13.09;78.63;100011.81;7354652;19;20014;-64
2023/03/29 00:05:14;;;;;;;0.00;0.00;;;;;;;13.11;79.02;100009.13;7350631;19;20026;-64
2023/03/29 00:07:40;;;;;;;;;;;;;;;13.14;77.64;100009.84;7357016;19;20007;-64
2023/03/29 00:10:08;;;;;;;0.05;0.05;;;;;;;13.12;78.88;100006.41;7353775;19;19906;-64
2023/03/29 00:12:35;;;;;;;0.05;0.05;;;;;;;13.12;78.31;100009.03;7353737;19;20391;-63
2023/03/29 00:15:02;;;;;;;0.07;0.07;;;;;;;13.12;78.80;100002.94;7352982;19;20033;-64
2023/03/29 00:17:27;;;;;;;0.10;0.10;;;;;;;13.13;78.87;100007.31;7351729;19;20013;-64
2023/03/29 00:19:53;;;;;;;0.08;0.08;;;;;;;13.12;78.84;100005.56;7353787;19;20103;-64
2023/03/29 00:22:18;;;;;;;0.00;0.00;;;;;;;13.13;78.91;100008.16;7351031;19;20027;-64
2023/03/29 00:24:46;;;;;;;0.05;0.05;;;;;;;13.13;78.58;100010.78;7355770;19;20031;-64
2023/03/29 00:27:12;;;;;;;0.00;0.00;;;;;;;13.05;78.35;99988.44;7353970;19;20812;-63
2023/03/29 00:29:37;;;;;;;0.00;0.00;;;;;;;13.15;77.83;100016.78;7352443;19;22454;-64
2023/03/29 00:32:03;;;;;;;0.00;0.00;;;;;;;13.16;77.68;100001.91;7353345;19;20227;-64
2023/03/29 00:34:29;;;;;;;0.00;0.00;;;;;;;13.16;77.77;100008.00;7352292;19;20483;-64
2023/03/29 00:36:56;;;;;;;0.10;0.10;;;;;;;13.16;78.04;99997.50;7354601;19;21694;-63
2023/03/29 00:39:23;;;;;;;0.08;0.08;;;;;;;13.16;77.92;100001.91;7352773;19;20671;-64
2023/03/29 00:41:49;;;;;;;0.10;0.10;;;;;;;13.18;77.86;99995.69;7352922;19;20593;-64
2023/03/29 00:44:52;;;;;;;0.00;0.00;;;;;;;13.20;77.76;99993.84;7353058;19;20038;-64
2023/03/29 00:47:23;;;;;;;0.10;0.10;;;;;;;13.18;78.17;99985.19;7252855;19;2004338;-64
2023/03/29 00:49:51;;;;;;;0.00;0.00;;;;;;;13.05;78.44;99955.19;7350946;19;20021;-64
2023/03/29 00:52:20;;;;;;;0.08;0.08;;;;;;;13.19;78.57;99971.16;7352938;19;20764;-64
2023/03/29 00:54:48;;;;;;;0.10;0.10;;;;;;;13.18;78.93;99969.47;7353199;19;20015;-64
2023/03/29 00:57:16;;;;;;;0.00;0.00;;;;;;;13.13;78.60;99955.72;7350186;19;20640;-64
2023/03/29 00:59:43;;;;;;;0.10;0.10;;;;;;;13.20;78.40;99962.38;7355464;19;20022;-64
2023/03/29 01:02:10;;;;;;;0.00;0.00;;;;;;;13.21;78.30;99958.84;7351452;19;20018;-64
2023/03/29 01:04:41;;;;;;;0.10;0.10;;;;;;;13.13;78.57;99945.22;7353153;19;20044;-65
2023/03/29 01:07:21;;;;;;;0.00;0.00;;;;;;;13.24;78.36;99953.50;7348833;19;20003;-64
2023/03/29 01:09:53;;;;;;;0.10;0.10;;;;;;;13.26;78.72;99955.19;7352298;19;20007;-64
2023/03/29 01:12:28;;;;;;;0.00;0.00;;;;;;;13.26;78.88;99949.94;7351165;19;20627;-64
2023/03/29 01:14:58;;;;;;;0.10;0.10;;;;;;;13.27;78.92;99956.88;7344203;19;20515;-64
2023/03/29 01:17:24;;;;;;;0.10;0.10;;;;;;;13.24;78.98;99958.72;7355088;19;20035;-64
2023/03/29 01:20:06;;;;;;;0.05;0.05;;;;;;;13.27;78.80;99956.88;7352704;19;20006;-64
2023/03/29 01:23:07;;;;;;;0.05;0.05;;;;;;;13.16;77.88;99939.84;7348962;19;20014;-64
2023/03/29 01:25:44;;;;;;;0.10;0.10;;;;;;;13.30;78.49;99977.72;7251873;19;2004159;-64
2023/03/29 01:28:21;;;;;;;;;;;;;;;13.31;77.33;99963.69;7353563;19;20082;-64
2023/03/29 01:30:48;;;;;;;;;;;;;;;13.31;77.02;99961.06;7352035;19;19920;-64
2023/03/29 01:33:22;;;;;;;0.00;0.00;;;;;;;13.27;77.52;99960.34;7351416;19;19934;-63
2023/03/29 01:35:56;;;;;;;0.00;0.00;;;;;;;13.14;77.52;99939.06;7348610;19;20014;-64
2023/03/29 01:38:38;;;;;;;0.10;0.10;;;;;;;13.22;77.73;99952.69;7330971;19;20026;-64
2023/03/29 01:41:04;;;;;;;0.10;0.10;;;;;;;13.18;77.64;99950.28;7353610;19;20045;-64
2023/03/29 01:43:39;;;;;;;0.10;0.10;;;;;;;13.17;77.78;99936.28;7353867;19;20490;-64
2023/03/29 01:46:13;;;;;;;0.00;0.00;;;;;;;13.06;77.84;99912.34;7352357;19;20007;-64
2023/03/29 01:48:54;;;;;;;0.10;0.10;;;;;;;13.12;78.14;99927.78;7351224;19;20026;-64
2023/03/29 01:51:25;;;;;;;0.10;0.10;;;;;;;13.09;78.45;99938.41;7351481;19;20106;-64
2023/03/29 01:54:00;;;;;;;0.10;0.10;;;;;;;13.11;78.57;99935.72;7350922;19;20006;-64
2023/03/29 01:56:28;;;;;;;0.10;0.10;;;;;;;13.08;78.73;99931.47;7350380;19;21356;-64
2023/03/29 01:58:57;;;;;;;;;;;;;;;13.12;77.60;99926.94;7341081;19;20792;-64
2023/03/29 02:01:28;;;;;;;0.08;0.08;;;;;;;13.09;78.04;99917.44;7342266;19;19936;-64
2023/03/29 02:04:01;;;;;;;0.10;0.10;;;;;;;13.06;77.90;99912.34;7349588;19;20006;-63
2023/03/29 02:06:29;;;;;;;0.10;0.10;;;;;;;13.04;77.44;99913.34;7347591;19;20014;-64
2023/03/29 02:08:55;;;;;;;0.00;0.00;;;;;;;13.00;77.56;99907.38;7347488;19;20565;-63
2023/03/29 02:11:23;;;;;;;0.00;0.00;;;;;;;13.00;77.30;99910.00;7349909;19;20010;-64
2023/03/29 02:13:48;;;;;;;0.10;0.10;;;;;;;12.96;77.73;99908.44;7347418;19;20429;-64
2023/03/29 02:16:14;;;;;;;0.00;0.00;;;;;;;12.91;77.84;99899.94;7346893;19;20014;-64
2023/03/29 02:18:46;;;;;;;0.05;0.05;;;;;;;12.94;77.99;99905.88;7349491;19;20502;-64
2023/03/29 02:21:22;;;;;;;0.10;0.10;;;;;;;12.94;78.18;99897.19;7345807;19;20694;-63
2023/03/29 02:23:50;;;;;;;0.00;0.00;;;;;;;12.91;78.81;99886.81;7345308;19;20022;-64
2023/03/29 02:26:16;;;;;;;0.05;0.05;;;;;;;12.91;78.91;99886.81;7348201;19;20014;-64
2023/03/29 02:28:42;;;;;;;0.10;0.10;;;;;;;12.92;79.03;99880.66;7347551;19;20010;-64
2023/03/29 02:31:26;;;;;;;0.00;0.00;;;;;;;12.92;78.73;99870.19;7348738;19;20037;-63
2023/03/29 02:34:06;;;;;;;0.10;0.10;;;;;;;12.96;79.02;99874.38;7346270;19;20011;-64
2023/03/29 02:36:42;;;;;;;0.00;0.00;;;;;;;12.96;78.74;99869.97;7346337;19;20944;-64
2023/03/29 02:39:12;;;;;;;0.10;0.10;;;;;;;12.95;79.24;99855.16;7348059;19;20010;-64
2023/03/29 02:41:41;;;;;;;0.00;0.00;;;;;;;12.83;79.57;99820.84;7350075;19;20468;-63
2023/03/29 02:44:12;;;;;;;0.10;0.10;;;;;;;12.98;79.47;99841.09;7346422;19;20022;-63
2023/03/29 02:46:41;;;;;;;0.10;0.10;;;;;;;12.94;79.24;99840.38;7344981;19;20010;-64
2023/03/29 02:49:09;;;;;;;0.00;0.00;;;;;;;12.94;79.56;99840.38;7349042;19;20151;-59
2023/03/29 02:51:36;;;;;;;0.10;0.10;;;;;;;13.01;79.39;99848.78;7353736;19;20041;-65
2023/03/29 02:54:30;;;;;;;0.10;0.10;;;;;;;13.05;78.67;99847.72;7354712;19;20475;-64
2023/03/29 02:57:02;;;;;;;0.10;0.10;;;;;;;13.04;79.11;99847.81;7252696;19;2004258;-64
2023/03/29 02:59:32;;;;;;;0.00;0.00;;;;;;;13.02;79.44;99834.75;7349114;19;20024;-64
2023/03/29 03:01:58;;;;;;;0.03;0.03;;;;;;;13.04;79.27;99824.22;7351464;19;20477;-64
2023/03/29 03:04:24;;;;;;;0.10;0.10;;;;;;;13.04;79.46;99825.06;7334637;19;20011;-64
2023/03/29 03:06:49;;;;;;;0.00;0.00;;;;;;;13.04;79.14;99835.56;7335536;19;20010;-64
2023/03/29 03:09:15;;;;;;;0.00;0.00;;;;;;;13.05;79.32;99832.00;7332025;19;20014;-64
2023/03/29 03:11:41;;;;;;;0.10;0.10;;;;;;;13.06;79.28;99825.84;7344818;19;20010;-64
2023/03/29 03:14:06;;;;;;;0.00;0.00;;;;;;;13.09;78.62;99802.13;7340443;19;20007;-64
2023/03/29 03:16:32;;;;;;;0.05;0.05;;;;;;;13.10;78.71;99802.97;7347642;19;20003;-64
2023/03/29 03:18:57;;;;;;;0.10;0.10;;;;;;;13.11;78.62;99794.16;7342667;19;20940;-64
2023/03/29 03:21:24;;;;;;;0.00;0.00;;;;;;;13.12;78.49;99788.00;7329285;19;20011;-64
2023/03/29 03:23:50;;;;;;;0.00;0.00;;;;;;;13.14;78.30;99789.66;7350730;19;20003;-64
2023/03/29 03:26:17;;;;;;;0.10;0.10;;;;;;;13.16;78.20;99781.69;7347528;19;20026;-64
2023/03/29 03:28:44;;;;;;;0.00;0.00;;;;;;;13.16;77.99;99771.22;7354648;19;20062;-64
2023/03/29 03:31:09;;;;;;;0.10;0.10;;;;;;;13.14;77.93;99739.84;7353638;19;20040;-64
2023/03/29 03:33:35;;;;;;;0.08;0.08;;;;;;;13.17;78.50;99752.78;7353285;19;20133;-64
2023/03/29 03:36:01;;;;;;;0.00;0.00;;;;;;;13.17;78.02;99749.31;7352832;19;20081;-64
2023/03/29 03:38:30;;;;;;;0.10;0.10;;;;;;;13.19;78.19;99769.31;7354103;19;20659;-64
2023/03/29 03:40:56;;;;;;;0.10;0.10;;;;;;;13.18;77.79;99779.88;7352356;19;20010;-64
2023/03/29 03:43:21;;;;;;;0.10;0.10;;;;;;;13.17;78.35;99768.50;7354774;19;20010;-64
2023/03/29 03:45:47;;;;;;;0.10;0.10;;;;;;;13.18;78.00;99780.72;7352212;19;20023;-64
2023/03/29 03:48:13;;;;;;;0.10;0.10;;;;;;;13.10;78.20;99766.28;7351220;19;20860;-64
2023/03/29 03:50:39;;;;;;;0.10;0.10;;;;;;;13.08;78.14;99758.50;7349135;19;20874;-64
2023/03/29 03:53:06;;;;;;;0.00;0.00;;;;;;;13.21;78.02;99777.97;7349396;19;20729;-64
2023/03/29 03:55:32;;;;;;;0.05;0.05;;;;;;;13.18;77.61;99780.72;7351752;19;20006;-64
2023/03/29 03:57:58;;;;;;;0.10;0.10;;;;;;;13.22;77.70;99779.66;7350886;19;20006;-62
2023/03/29 04:00:24;;;;;;;0.00;0.00;;;;;;;13.27;77.76;99789.06;7348248;19;20043;-63
2023/03/29 04:02:53;;;;;;;0.00;0.00;;;;;;;13.30;77.70;99783.69;7352760;19;20003;-64
2023/03/29 04:05:19;;;;;;;0.00;0.00;;;;;;;13.30;77.50;99774.06;7352649;19;20121;-64
2023/03/29 04:07:44;;;;;;;0.10;0.10;;;;;;;13.29;77.97;99755.78;7351234;19;20018;-64
2023/03/29 04:10:10;;;;;;;0.10;0.10;;;;;;;13.31;77.92;99727.69;7352735;19;20010;-64
2023/03/29 04:12:36;;;;;;;0.10;0.10;;;;;;;13.32;77.74;99732.00;7354340;19;20006;-64
2023/03/29 04:15:02;;;;;;;0.10;0.10;;;;;;;13.18;77.69;99699.44;7350752;19;19998;-64
2023/03/29 04:17:28;;;;;;;0.08;0.08;;;;;;;13.31;77.51;99701.47;7353143;19;20113;-58
2023/03/29 04:19:53;;;;;;;0.00;0.00;;;;;;;13.32;77.55;99704.03;7353661;19;20511;-64
2023/03/29 04:22:18;;;;;;;0.00;0.00;;;;;;;13.33;77.58;99700.50;7350167;19;20068;-65
2023/03/29 04:24:44;;;;;;;0.00;0.00;;;;;;;13.34;77.82;99702.19;7353534;19;20015;-64
2023/03/29 04:27:09;;;;;;;0.10;0.10;;;;;;;13.37;77.43;99701.16;7352268;19;20015;-64
2023/03/29 04:29:35;;;;;;;0.00;0.00;;;;;;;13.38;77.46;99706.34;7350715;19;20042;-64
2023/03/29 04:32:00;;;;;;;0.10;0.10;;;;;;;13.40;77.16;99698.41;7351734;19;20010;-64
2023/03/29 04:34:26;;;;;;;0.10;0.10;;;;;;;13.38;77.20;99692.38;7349820;19;20011;-64
2023/03/29 04:36:51;;;;;;;0.00;0.00;;;;;;;13.45;77.36;99704.28;7348348;19;20021;-64
2023/03/29 04:39:17;;;;;;;0.10;0.10;;;;;;;13.46;77.21;99701.56;7350615;19;20015;-64
2023/03/29 04:41:43;;;;;;;0.10;0.10;;;;;;;13.50;77.24;99707.50;7351028;19;20073;-64
2023/03/29 04:44:11;;;;;;;0.03;0.03;;;;;;;13.46;77.02;99696.31;7349781;19;20050;-64
2023/03/29 04:46:38;;;;;;;0.10;0.10;;;;;;;13.50;76.90;99684.75;7349597;19;20010;-63
2023/03/29 04:49:04;;;;;;;0.03;0.03;;;;;;;13.54;77.15;99693.31;7349858;19;20015;-64
2023/03/29 04:51:30;;;;;;;0.10;0.10;;;;;;;13.52;77.10;99682.03;7346053;19;20018;-63
2023/03/29 04:53:56;;;;;;;0.00;0.00;;;;;;;13.53;76.59;99691.59;7349959;19;20591;-64
2023/03/29 04:56:22;;;;;;;0.00;0.00;;;;;;;13.41;76.81;99677.34;7349484;19;20025;-65
2023/03/29 04:58:48;;;;;;;0.10;0.10;;;;;;;13.46;76.40;99684.97;7351102;19;20006;-64
2023/03/29 05:01:14;;;;;;;0.10;0.10;;;;;;;13.49;76.68;99695.31;7348848;19;20079;-64
2023/03/29 05:03:40;;;;;;;0.10;0.10;;;;;;;13.38;76.89;99668.78;7352517;19;20014;-64
2023/03/29 05:06:07;;;;;;;0.00;0.00;;;;;;;13.49;76.90;99679.59;7348012;19;20014;-64
2023/03/29 05:08:38;;;;;;;0.10;0.10;;;;;;;13.49;76.67;99679.59;7348357;19;20914;-64
2023/03/29 05:11:05;;;;;;;0.10;0.10;;;;;;;13.47;77.17;99669.16;7352390;19;20014;-64
2023/03/29 05:13:31;;;;;;;0.00;0.00;;;;;;;13.45;76.81;99673.63;7347854;19;20837;-64
2023/03/29 05:15:56;;;;;;;0.03;0.03;;;;;;;13.45;76.70;99665.78;7348951;19;20014;-63
2023/03/29 05:18:22;;;;;;;0.05;0.05;;;;;;;13.46;76.67;99659.59;7350334;19;20035;-64
2023/03/29 05:20:50;;;;;;;0.10;0.10;;;;;;;13.47;77.09;99655.19;7348152;19;20014;-64
2023/03/29 05:23:16;;;;;;;0.10;0.10;;;;;;;13.45;76.70;99651.81;7350059;19;20015;-64
2023/03/29 05:25:42;;;;;;;0.10;0.10;;;;;;;13.41;77.06;99647.66;7350536;19;20010;-64
2023/03/29 05:28:08;;;;;;;0.08;0.08;;;;;;;13.44;77.02;99645.72;7350608;19;20389;-61
2023/03/29 05:30:34;;;;;;;0.10;0.10;;;;;;;13.45;76.74;99646.56;7350534;19;20017;-64
2023/03/29 05:33:01;;;;;;;0.10;0.10;;;;;;;13.44;77.22;99643.09;7348652;19;20032;-60
2023/03/29 05:35:27;;;;;;;0.10;0.10;;;;;;;13.44;76.66;99634.41;7351176;19;20346;-64
2023/03/29 05:37:54;;;;;;;0.10;0.10;;;;;;;13.35;76.90;99619.97;7345847;19;20030;-63
2023/03/29 05:40:19;;;;;;;0.00;0.00;;;;;;;13.34;76.53;99617.44;7344720;19;20014;-64
2023/03/29 05:42:45;;;;;;;0.10;0.10;;;;;;;13.41;76.97;99629.28;7342637;19;20265;-64
2023/03/29 05:45:10;;;;;;;0.00;0.00;;;;;;;13.41;76.78;99624.03;7349610;19;20003;-64
2023/03/29 05:47:36;;;;;;;0.10;0.10;;;;;;;13.40;76.79;99623.19;7345322;19;20121;-64
2023/03/29 05:50:01;;;;;;;0.10;0.10;;;;;;;13.23;76.93;99590.00;7351685;19;20118;-64
2023/03/29 05:52:27;;;;;;;0.10;0.10;;;;;;;13.40;76.97;99611.88;7346408;19;20023;-64
2023/03/29 05:54:52;;;;;;;0.10;0.10;;;;;;;13.40;76.79;99614.50;7350527;19;20018;-64
2023/03/29 05:57:18;;;;;;;0.10;0.10;;;;;;;13.39;77.15;99615.44;7348389;19;20021;-64
2023/03/29 05:59:43;;;;;;;0.10;0.10;;;;;;;13.39;77.48;99604.94;7339251;19;20794;-64
2023/03/29 06:02:11;;;;;;;0.10;0.10;;;;;;;13.39;77.24;99604.94;7351579;19;20014;-63
2023/03/29 06:04:37;;;;;;;0.10;0.10;;;;;;;13.37;76.96;99604.16;7353980;19;20753;-64
2023/03/29 06:07:03;;;;;;;0.00;0.00;;;;;;;13.38;76.88;99618.94;7348005;19;20017;-64
2023/03/29 06:09:29;;;;;;;0.00;0.00;;;;;;;13.29;76.75;99598.47;7350874;19;20026;-60
2023/03/29 06:11:56;;;;;;;0.10;0.10;;;;;;;13.36;77.12;99620.81;7350221;19;20015;-64
2023/03/29 06:14:23;;;;;;;0.10;0.10;;;;;;;13.35;77.08;99613.88;7351592;19;20015;-63
2023/03/29 06:16:49;;;;;;;0.00;0.00;;;;;;;13.34;76.78;99606.94;7352204;19;20351;-64
2023/03/29 06:19:14;;;;;;;0.10;0.10;;;;;;;13.34;77.17;99601.69;7351896;19;20016;-64
2023/03/29 06:21:40;;;;;;;0.00;0.00;;;;;;;13.34;77.26;99612.19;7347733;19;20973;-64
2023/03/29 06:24:05;;;;;;;0.00;0.00;;;;;;;13.33;77.05;99610.47;7346800;19;20082;-64
2023/03/29 06:26:31;;;;;;;0.10;0.10;;;;;;;13.31;76.92;99591.34;7350995;19;20026;-64
2023/03/29 06:28:57;;;;;;;0.10;0.10;;;;;;;13.32;77.16;99583.41;7351846;19;20011;-64
2023/03/29 06:31:22;;;;;;;0.10;0.10;;;;;;;13.33;77.09;99594.75;7343073;19;20036;-64
2023/03/29 06:33:48;;;;;;;0.10;0.10;;;;;;;13.32;77.27;99582.56;7349630;19;20011;-64
2023/03/29 06:36:15;;;;;;;0.00;0.00;;;;;;;13.32;77.76;99561.59;7352362;19;20470;-64
2023/03/29 06:38:42;;;;;;;0.10;0.10;;;;;;;13.32;77.77;99567.69;7351123;19;20474;-64
2023/03/29 06:41:11;;;;;;;0.10;0.10;;;;;;;13.35;77.95;99577.16;7333683;19;20095;-64
2023/03/29 06:43:37;;;;;;;0.10;0.10;;;;;;;13.32;77.71;99556.34;7344885;19;20048;-63
2023/03/29 06:46:04;;;;;;;0.10;0.10;;;;;;;13.35;77.99;99556.19;7353288;19;21907;-64
2023/03/29 06:48:30;;;;;;;0.03;0.03;;;;;;;13.36;78.00;99547.41;7353296;19;20024;-64
2023/03/29 06:50:56;;;;;;;0.10;0.10;;;;;;;13.38;77.69;99550.78;7353842;19;20023;-63
2023/03/29 06:53:21;;;;;;;0.10;0.10;;;;;;;13.26;77.22;99512.94;7353728;19;20010;-64
2023/03/29 06:55:48;;;;;;;0.10;0.10;;;;;;;13.41;77.32;99524.41;7349588;19;20026;-64
2023/03/29 06:58:14;;;;;;;0.10;0.10;;;;;;;13.44;76.78;99522.47;7348908;19;20034;-64
2023/03/29 07:00:40;;;;;;;0.03;0.03;;;;;;;13.46;76.96;99517.13;7354985;19;20011;-64
2023/03/29 07:03:09;;;;;;;0.00;0.00;;;;;;;13.34;76.76;99491.56;7350518;19;20023;-66
2023/03/29 07:05:35;;;;;;;0.10;0.10;;;;;;;13.49;76.35;99496.00;7348749;19;20034;-58
2023/03/29 07:10:37;;;;;;;0.08;0.08;;;;;;;13.52;76.31;99498.44;7351083;19;20052;-59
2023/03/29 07:13:04;;;;;;;0.10;0.10;;;;;;;13.50;76.17;99487.19;7339413;19;20010;-59
2023/03/29 07:15:30;;;;;;;;;;;;;;;13.56;76.68;99479.00;7348866;19;20031;-59
2023/03/29 07:17:56;;;;;;;0.00;0.00;;;;;;;13.52;75.89;99489.72;7356238;19;19928;-60
2023/03/29 07:20:22;;;;;;;0.05;0.05;;;;;;;13.53;76.13;99480.94;7353633;19;20254;-59
2023/03/29 07:22:49;;;;;;;0.00;0.00;;;;;;;13.51;76.00;99473.16;7352558;19;20019;-60
2023/03/29 07:25:16;;;;;;;;;;;;;;;13.56;76.00;99471.13;7352722;19;20458;-59
2023/03/29 07:27:41;;;;;;;0.00;0.00;;;;;;;13.50;75.62;99484.56;7352900;19;20570;-59
2023/03/29 07:30:09;;;;;;;0.08;0.08;;;;;;;13.49;75.60;99475.88;7352596;19;20010;-59
2023/03/29 07:32:36;;;;;;;0.03;0.03;;;;;;;13.47;75.30;99476.84;7350866;19;20030;-59
2023/03/29 07:35:04;;;;;;;0.10;0.10;;;;;;;13.44;75.52;99472.66;7352142;19;20018;-59
2023/03/29 07:37:29;;;;;;;0.03;0.03;;;;;;;13.38;75.90;99472.97;7358424;19;20010;-59
2023/03/29 07:39:55;;;;;;;0.10;0.10;;;;;;;13.19;75.73;99431.13;7359551;19;20526;-59
2023/03/29 07:42:20;;;;;;;0.10;0.10;;;;;;;13.42;76.05;99479.72;7354022;19;20021;-59
2023/03/29 07:44:47;;;;;;;0.00;0.00;;;;;;;13.36;75.76;99463.50;7359977;19;20043;-60
2023/03/29 07:47:13;;;;;;;0.00;0.00;;;;;;;13.38;75.91;99464.25;7359041;19;20086;-60
2023/03/29 07:49:38;;;;;;;0.10;0.10;;;;;;;13.38;75.73;99462.50;7344154;19;20017;-59
2023/03/29 07:52:04;;;;;;;0.10;0.10;;;;;;;13.34;76.15;99439.97;7356181;19;20031;-59
2023/03/29 07:54:31;;;;;;;0.10;0.10;;;;;;;13.38;76.34;99445.88;7356114;19;20015;-59
2023/03/29 07:56:57;;;;;;;0.08;0.08;;;;;;;13.39;76.08;99460.72;7359398;19;20061;-58
2023/03/29 07:59:22;;;;;;;0.10;0.10;;;;;;;13.42;76.48;99450.03;7355759;19;23480;-59
2023/03/29 08:01:49;;;;;;;0.00;0.00;;;;;;;13.44;76.24;99445.56;7357566;19;20018;-59
2023/03/29 08:04:14;;;;;;;0.03;0.03;;;;;;;13.46;76.12;99444.53;7356610;19;20015;-60
2023/03/29 08:06:40;;;;;;;0.08;0.08;;;;;;;13.49;76.16;99448.78;7360278;19;20881;-60
2023/03/29 08:09:05;;;;;;;0.00;0.00;;;;;;;13.53;76.40;99467.81;7359042;19;20085;-59
2023/03/29 08:11:31;;;;;;;0.10;0.10;;;;;;;13.50;76.16;99448.69;7359666;19;20073;-59
2023/03/29 08:13:58;;;;;;;0.08;0.08;;;;;;;13.45;76.25;99418.41;7359658;19;20021;-59
2023/03/29 08:16:24;;;;;;;0.08;0.08;;;;;;;13.55;76.06;99403.03;7356713;19;20014;-60
2023/03/29 08:18:49;;;;;;;0.10;0.10;;;;;;;13.54;75.87;99403.97;7356162;19;20042;-60
2023/03/29 08:21:15;;;;;;;0.03;0.03;;;;;;;13.42;75.59;99385.31;7361530;19;20010;-59
2023/03/29 08:23:40;;;;;;;0.00;0.00;;;;;;;13.50;75.59;99392.78;7360121;19;21345;-59
2023/03/29 08:26:08;;;;;;;0.10;0.10;;;;;;;13.48;75.18;99394.63;7359747;19;20094;-60
2023/03/29 08:28:33;;;;;;;0.10;0.10;;;;;;;13.45;75.18;99389.56;7356989;19;20052;-59
2023/03/29 08:30:59;;;;;;;0.00;0.00;;;;;;;13.35;75.70;99378.75;7360091;19;20431;-60
2023/03/29 08:33:24;;;;;;;0.00;0.00;;;;;;;13.36;75.72;99363.84;7359318;19;20025;-58
2023/03/29 08:35:50;;;;;;;0.03;0.03;;;;;;;13.23;75.68;99330.47;7360549;19;20010;-59
2023/03/29 08:38:15;;;;;;;0.10;0.10;;;;;;;13.37;75.46;99344.56;7359290;19;20057;-58
2023/03/29 08:40:41;;;;;;;0.00;0.00;;;;;;;13.26;75.19;99320.72;7357823;19;20011;-59
2023/03/29 08:43:36;;;;;;;0.00;0.00;;;;;;;13.35;75.16;99334.16;7360347;19;20478;-59
2023/03/29 08:46:04;;;;;;;0.00;0.00;;;;;;;13.32;75.01;99336.09;7255749;19;2004339;-60
2023/03/29 08:48:35;;;;;;;0.05;0.05;;;;;;;13.30;75.07;99343.22;7359292;19;20085;-59
2023/03/29 08:51:05;;;;;;;0.10;0.10;;;;;;;13.29;75.45;99346.78;7358759;19;20025;-60
2023/03/29 08:53:47;;;;;;;0.10;0.10;;;;;;;13.28;75.56;99350.31;7357893;19;20002;-59
2023/03/29 08:56:26;;;;;;;0.00;0.00;;;;;;;13.26;75.58;99352.19;7358362;19;20003;-60
2023/03/29 08:58:53;;;;;;;0.00;0.00;;;;;;;13.14;75.36;99323.06;7358024;19;20011;-60
2023/03/29 09:01:20;;;;;;;0.00;0.00;;;;;;;13.20;75.24;99343.69;7358698;19;20010;-59
2023/03/29 09:04:15;;;;;;;0.00;0.00;;;;;;;13.20;75.24;99348.09;7360690;19;20593;-59
2023/03/29 09:06:40;;;;;;;0.00;0.00;;;;;;;13.10;75.22;99321.53;7258450;19;2004241;-60
2023/03/29 09:09:13;;;;;;;0.10;0.10;;;;;;;13.18;75.54;99324.59;7355815;19;20459;-59
2023/03/29 09:12:00;;;;;;;0.00;0.00;;;;;;;13.17;75.70;99316.78;7355983;19;20006;-59
2023/03/29 09:14:28;;;;;;;0.00;0.00;;;;;;;13.14;75.75;99312.59;7358617;19;20003;-59
2023/03/29 09:17:03;;;;;;;0.00;0.00;;;;;;;13.15;75.47;99290.69;7359148;19;20015;-59
2023/03/29 09:19:47;;;;;;;0.00;0.00;;;;;;;13.17;75.60;99306.31;7357974;19;20839;-59
2023/03/29 09:22:31;;;;;;;0.05;0.05;;;;;;;13.17;76.16;99307.16;7359471;19;20515;-60
2023/03/29 09:25:15;;;;;;;0.10;0.10;;;;;;;13.21;75.85;99305.22;7359394;19;20690;-59
2023/03/29 09:27:40;;;;;;;0.00;0.00;;;;;;;13.20;76.21;99308.78;7358826;19;20014;-59
2023/03/29 09:30:24;;;;;;;0.10;0.10;;;;;;;13.22;75.87;99302.53;7360267;19;21123;-59
2023/03/29 09:33:16;;;;;;;0.10;0.10;;;;;;;13.27;76.06;99291.78;7359735;19;20006;-59
2023/03/29 09:35:49;;;;;;;0.10;0.10;;;;;;;13.26;75.89;99273.53;7256401;19;2004423;-59
2023/03/29 09:38:17;;;;;;;0.00;0.00;;;;;;;13.20;76.10;99272.91;7357011;19;20011;-58
2023/03/29 09:40:52;;;;;;;0.00;0.00;;;;;;;13.28;75.92;99282.16;7356873;19;20915;-60
2023/03/29 09:43:29;;;;;;;0.10;0.10;;;;;;;13.30;76.32;99280.31;7357719;19;20014;-59
2023/03/29 09:45:57;;;;;;;0.10;0.10;;;;;;;13.31;76.00;99276.75;7356376;19;20814;-59
2023/03/29 09:48:25;;;;;;;0.10;0.10;;;;;;;13.31;76.12;99267.09;7357885;19;20002;-59
2023/03/29 09:50:51;;;;;;;0.00;0.00;;;;;;;13.31;76.11;99250.53;7355665;19;20466;-59
2023/03/29 09:53:18;;;;;;;0.10;0.10;;;;;;;13.31;76.57;99242.66;7357867;19;20010;-59
2023/03/29 09:55:47;;;;;;;0.10;0.10;;;;;;;13.19;76.52;99216.19;7358161;19;20014;-59
2023/03/29 09:58:16;;;;;;;0.10;0.10;;;;;;;13.30;76.71;99227.88;7358564;19;20014;-59
2023/03/29 10:00:43;;;;;;;0.10;0.10;;;;;;;13.23;76.79;99217.75;7356430;19;20014;-59
2023/03/29 10:03:16;;;;;;;0.00;0.00;;;;;;;13.27;76.46;99222.78;7357836;19;20037;-57
2023/03/29 10:05:44;;;;;;;0.00;0.00;;;;;;;13.23;77.20;99202.00;7358989;19;20019;-58
2023/03/29 10:08:18;;;;;;;0.10;0.10;;;;;;;13.26;76.73;99205.38;7357969;19;20029;-58
2023/03/29 10:10:44;;;;;;;0.10;0.10;;;;;;;13.11;77.25;99186.94;7356253;19;20029;-58
2023/03/29 10:13:21;;;;;;;0.00;0.00;;;;;;;13.22;77.09;99205.53;7357109;19;20367;-59
2023/03/29 10:16:04;;;;;;;0.00;0.00;;;;;;;13.22;77.36;99195.06;7356989;19;20006;-59
2023/03/29 10:18:31;;;;;;;0.00;0.00;;;;;;;13.21;77.95;99184.63;7355765;19;20027;-58
2023/03/29 10:20:59;;;;;;;0.10;0.10;;;;;;;13.20;77.96;99191.66;7355620;19;20030;-59
2023/03/29 10:23:30;;;;;;;0.08;0.08;;;;;;;13.23;77.39;99188.91;7355093;19;20022;-59
2023/03/29 10:25:56;;;;;;;0.00;0.00;;;;;;;13.23;77.46;99188.06;7355187;19;20077;-59
2023/03/29 10:28:23;;;;;;;0.10;0.10;;;;;;;13.23;77.28;99186.28;7357632;19;20110;-58
2023/03/29 10:30:58;;;;;;;0.10;0.10;;;;;;;13.15;77.51;99162.25;7359006;19;20016;-59
2023/03/29 10:33:26;;;;;;;0.05;0.05;;;;;;;13.24;77.60;99174.88;7354695;19;20054;-58
2023/03/29 10:35:56;;;;;;;0.00;0.00;;;;;;;13.27;77.93;99186.09;7356035;19;20050;-59
2023/03/29 10:38:26;;;;;;;0.10;0.10;;;;;;;13.29;78.05;99197.34;7353181;19;20025;-58
2023/03/29 10:40:53;;;;;;;0.10;0.10;;;;;;;13.29;77.87;99179.00;7355198;19;20022;-58
2023/03/29 10:43:25;;;;;;;0.00;0.00;;;;;;;13.30;78.04;99159.72;7355066;19;20014;-58
2023/03/29 10:45:55;;;;;;;0.03;0.03;;;;;;;13.32;78.40;99173.56;7356699;19;20010;-59
2023/03/29 10:48:29;;;;;;;0.10;0.10;;;;;;;13.35;78.47;99160.28;7349414;19;20010;-58
2023/03/29 10:50:59;;;;;;;0.10;0.10;;;;;;;13.36;78.62;99154.09;7356525;19;20581;-58
2023/03/29 10:53:27;;;;;;;0.00;0.00;;;;;;;13.38;78.27;99154.84;7349063;19;20013;-59
2023/03/29 10:56:13;;;;;;;0.05;0.05;;;;;;;13.43;78.11;99156.28;7333156;19;20557;-58
2023/03/29 10:59:13;;;;;;;0.10;0.10;;;;;;;13.45;78.33;99148.31;7341013;19;20018;-60
2023/03/29 11:02:12;;;;;;;0.10;0.10;;;;;;;13.49;78.17;99144.59;7240993;19;2004209;-59
2023/03/29 11:05:12;;;;;;;0.00;0.00;;;;;;;13.49;77.91;99140.19;7240182;19;2004342;-59
2023/03/29 11:08:10;;;;;;;0.10;0.10;;;;;;;13.49;78.09;99144.59;7240421;19;2004586;-57
2023/03/29 11:11:07;;;;;;;0.10;0.10;;;;;;;13.51;78.23;99147.94;7240848;19;2004579;-59
2023/03/29 11:13:51;;;;;;;0.00;0.00;;;;;;;13.47;78.54;99143.81;7245712;19;2004136;-58
2023/03/29 11:16:26;;;;;;;0.10;0.10;;;;;;;13.48;78.28;99121.91;7349849;19;20030;-59
2023/03/29 11:19:15;;;;;;;0.10;0.10;;;;;;;13.33;78.34;99112.31;7348067;19;20496;-59
2023/03/29 11:21:56;;;;;;;0.03;0.03;;;;;;;13.50;78.42;99143.66;7350464;19;20824;-59
2023/03/29 11:24:46;;;;;;;0.08;0.08;;;;;;;13.53;78.55;99139.97;7348801;19;20016;-59
2023/03/29 11:27:33;;;;;;;0.10;0.10;;;;;;;13.52;79.30;99144.38;7347294;19;20014;-59
2023/03/29 11:29:59;;;;;;;0.00;0.00;;;;;;;13.54;79.08;99150.41;7349925;19;20019;-59
2023/03/29 11:33:08;;;;;;;0.10;0.10;;;;;;;13.60;79.35;99144.78;7349791;19;22465;-59
2023/03/29 11:35:41;;;;;;;0.00;0.00;;;;;;;13.66;79.22;99140.94;7240074;19;2004457;-59
2023/03/29 11:38:09;;;;;;;0.10;0.10;;;;;;;13.68;79.35;99137.28;7344718;19;20021;-59
2023/03/29 11:40:52;;;;;;;0.00;0.00;;;;;;;13.71;79.55;99139.72;7346624;19;20043;-59
2023/03/29 11:43:24;;;;;;;0.10;0.10;;;;;;;13.77;79.83;99128.84;7349852;19;20014;-59
2023/03/29 11:46:05;;;;;;;0.10;0.10;;;;;;;13.86;79.71;99129.25;7344950;19;20786;-59
2023/03/29 11:48:36;;;;;;;0.10;0.10;;;;;;;13.93;79.77;99120.03;7349891;19;20035;-59